createdAt,value
2023-03-22T00:02:07.098Z,10.05
2023-03-22T00:04:36.525Z,10.04
2023-03-22T00:07:05.473Z,10.07
2023-03-22T00:09:34.549Z,10.07
2023-03-22T00:12:05.400Z,10.07
2023-03-22T00:14:37.201Z,10.05
2023-03-22T00:17:08.888Z,10.03
2023-03-22T00:19:44.470Z,10.01
2023-03-22T00:22:16.553Z,9.97
2023-03-22T00:24:49.910Z,9.96
2023-03-22T00:27:19.523Z,9.97
2023-03-22T00:29:49.484Z,9.97
2023-03-22T00:32:19.656Z,9.99
2023-03-22T00:34:50.355Z,9.98
2023-03-22T00:37:22.915Z,9.95
2023-03-22T00:39:55.584Z,9.94
2023-03-22T00:42:26.784Z,9.93
2023-03-22T00:44:57.318Z,9.92
2023-03-22T00:47:27.198Z,9.93
2023-03-22T00:49:57.963Z,9.93
2023-03-22T00:52:27.925Z,9.95
2023-03-22T00:54:58.633Z,9.96
2023-03-22T00:57:28.587Z,9.97
2023-03-22T00:59:59.532Z,9.96
2023-03-22T01:02:30.323Z,9.94
2023-03-22T01:05:03.626Z,9.93
2023-03-22T01:07:34.437Z,9.92
2023-03-22T01:10:07.440Z,9.92
2023-03-22T01:12:38.222Z,9.92
2023-03-22T01:15:09.816Z,9.91
2023-03-22T01:17:39.920Z,9.90
2023-03-22T01:20:12.233Z,9.89
2023-03-22T01:22:42.211Z,9.87
2023-03-22T01:25:16.104Z,9.86
2023-03-22T01:27:47.004Z,9.85
2023-03-22T01:30:17.599Z,9.84
2023-03-22T01:32:52.489Z,9.85
2023-03-22T01:35:25.173Z,9.87
2023-03-22T01:37:57.023Z,9.90
2023-03-22T01:40:27.946Z,9.90
2023-03-22T01:42:59.665Z,9.90
2023-03-22T01:45:51.260Z,9.85
2023-03-22T01:48:36.204Z,9.81
2023-03-22T01:51:19.185Z,9.81
2023-03-22T01:53:54.182Z,9.82
2023-03-22T01:56:27.434Z,9.85
2023-03-22T01:58:58.742Z,9.89
2023-03-22T02:01:29.672Z,9.89
2023-03-22T02:04:34.446Z,9.88
2023-03-22T02:07:10.821Z,9.85
2023-03-22T02:09:43.580Z,9.84
2023-03-22T02:12:45.111Z,9.84
2023-03-22T02:15:27.097Z,9.84
2023-03-22T02:18:24.386Z,9.88
2023-03-22T02:21:32.971Z,9.89
2023-03-22T02:24:10.808Z,9.92
2023-03-22T02:27:07.606Z,9.93
2023-03-22T02:29:47.982Z,9.91
2023-03-22T02:32:17.456Z,9.90
2023-03-22T02:34:48.939Z,9.91
2023-03-22T02:37:20.673Z,9.91
2023-03-22T02:40:11.691Z,9.93
2023-03-22T02:42:55.467Z,9.92
2023-03-22T02:45:35.072Z,9.91
2023-03-22T02:48:17.822Z,9.89
2023-03-22T02:50:56.945Z,9.88
2023-03-22T02:53:30.121Z,9.87
2023-03-22T02:56:05.653Z,9.88
2023-03-22T02:58:46.995Z,9.88
2023-03-22T03:01:30.230Z,9.92
2023-03-22T03:04:07.536Z,9.93
2023-03-22T03:06:47.450Z,9.93
2023-03-22T03:09:22.079Z,9.91
2023-03-22T03:11:57.511Z,9.88
2023-03-22T03:14:30.779Z,9.88
2023-03-22T03:17:17.427Z,9.90
2023-03-22T03:20:05.102Z,9.92
2023-03-22T03:22:50.823Z,9.95
2023-03-22T03:25:49.426Z,9.97
2023-03-22T03:28:52.198Z,9.95
2023-03-22T03:31:27.660Z,9.93
2023-03-22T03:34:19.104Z,9.91
2023-03-22T03:36:55.395Z,9.90
2023-03-22T03:39:28.577Z,9.89
2023-03-22T03:42:00.241Z,9.90
2023-03-22T03:44:34.237Z,9.89
2023-03-22T03:47:05.359Z,9.92
2023-03-22T03:49:36.463Z,9.91
2023-03-22T03:52:10.245Z,9.90
2023-03-22T03:54:44.948Z,9.88
2023-03-22T03:57:17.953Z,9.87
2023-03-22T03:59:50.876Z,9.87
2023-03-22T04:02:21.241Z,9.89
2023-03-22T04:04:51.717Z,9.91
2023-03-22T04:07:24.663Z,9.91
2023-03-22T04:09:55.824Z,9.91
2023-03-22T04:12:29.436Z,9.88
2023-03-22T04:14:58.555Z,9.85
2023-03-22T04:17:34.424Z,9.84
2023-03-22T04:20:08.047Z,9.83
2023-03-22T04:22:41.111Z,9.84
2023-03-22T04:25:16.251Z,9.83
2023-03-22T04:27:47.458Z,9.83
2023-03-22T04:30:22.194Z,9.82
2023-03-22T04:32:52.178Z,9.79
2023-03-22T04:35:24.426Z,9.75
2023-03-22T04:37:55.110Z,9.73
2023-03-22T04:40:29.434Z,9.72
2023-03-22T04:43:01.267Z,9.71
2023-03-22T04:45:37.404Z,9.72
2023-03-22T04:48:08.897Z,9.73
2023-03-22T04:50:42.014Z,9.72
2023-03-22T04:53:12.677Z,9.71
2023-03-22T04:55:44.811Z,9.69
2023-03-22T04:58:17.875Z,9.68
2023-03-22T05:00:49.528Z,9.67
2023-03-22T05:03:22.260Z,9.68
2023-03-22T05:05:55.547Z,9.67
2023-03-22T05:08:26.726Z,9.66
2023-03-22T05:10:57.113Z,9.65
2023-03-22T05:13:27.574Z,9.63
2023-03-22T05:15:59.382Z,9.61
2023-03-22T05:18:28.807Z,9.59
2023-03-22T05:20:58.525Z,9.58
2023-03-22T05:23:27.564Z,9.59
2023-03-22T05:25:58.939Z,9.60
2023-03-22T05:28:31.048Z,9.62
2023-03-22T05:31:05.734Z,9.65
2023-03-22T05:33:37.268Z,9.65
2023-03-22T05:36:08.161Z,9.65
2023-03-22T05:38:37.118Z,9.65
2023-03-22T05:41:06.758Z,9.65
2023-03-22T05:43:35.895Z,9.66
2023-03-22T05:46:13.402Z,9.70
2023-03-22T05:48:43.135Z,9.74
2023-03-22T05:51:17.917Z,9.76
2023-03-22T05:53:50.236Z,9.77
2023-03-22T05:56:22.215Z,9.77
2023-03-22T05:58:52.600Z,9.77
2023-03-22T06:01:21.611Z,9.77
2023-03-22T06:03:51.205Z,9.78
2023-03-22T06:06:20.413Z,9.82
2023-03-22T06:08:51.019Z,9.84
2023-03-22T06:11:21.277Z,9.88
2023-03-22T06:13:49.895Z,9.92
2023-03-22T06:16:19.160Z,9.94
2023-03-22T06:18:48.188Z,9.96
2023-03-22T06:21:19.019Z,9.96
2023-03-22T06:23:51.430Z,10.01
2023-03-22T06:26:26.905Z,10.07
2023-03-22T06:28:57.249Z,10.11
2023-03-22T06:31:27.786Z,10.16
2023-03-22T06:34:00.292Z,10.21
2023-03-22T06:36:33.384Z,10.23
2023-03-22T06:39:06.182Z,10.27
2023-03-22T06:41:39.000Z,10.33
2023-03-22T06:44:10.659Z,10.41
2023-03-22T06:46:44.346Z,10.47
2023-03-22T06:49:16.410Z,10.54
2023-03-22T06:51:50.575Z,10.59
2023-03-22T06:54:31.084Z,10.65
2023-03-22T06:57:06.999Z,10.70
2023-03-22T06:59:45.451Z,10.76
2023-03-22T07:02:19.019Z,10.81
2023-03-22T07:04:54.288Z,10.85
2023-03-22T07:07:25.085Z,10.88
2023-03-22T07:09:59.453Z,10.91
2023-03-22T07:12:33.857Z,10.92
2023-03-22T07:15:08.988Z,10.93
2023-03-22T07:17:43.786Z,10.94
2023-03-22T07:20:20.349Z,10.98
2023-03-22T07:22:54.498Z,11.04
2023-03-22T07:25:30.670Z,11.09
2023-03-22T07:28:09.821Z,11.11
2023-03-22T07:30:44.449Z,11.15
2023-03-22T07:33:19.280Z,11.14
2023-03-22T07:35:52.902Z,11.19
2023-03-22T07:38:27.234Z,11.19
2023-03-22T07:41:00.490Z,11.22
2023-03-22T07:43:29.963Z,11.25
2023-03-22T07:46:01.200Z,11.31
2023-03-22T07:48:35.018Z,11.34
2023-03-22T07:51:11.120Z,11.38
2023-03-22T07:53:46.531Z,11.41
2023-03-22T07:56:18.805Z,11.42
2023-03-22T07:58:50.806Z,11.47
2023-03-22T08:01:26.808Z,11.52
2023-03-22T08:03:59.904Z,11.59
2023-03-22T08:06:35.727Z,11.65
2023-03-22T08:09:12.316Z,11.70
2023-03-22T08:11:49.538Z,11.74
2023-03-22T08:14:35.839Z,11.77
2023-03-22T08:17:17.726Z,11.80
2023-03-22T08:19:58.676Z,11.84
2023-03-22T08:22:32.550Z,11.87
2023-03-22T08:25:06.071Z,11.89
2023-03-22T08:27:34.729Z,11.92
2023-03-22T08:30:06.709Z,11.94
2023-03-22T08:32:42.970Z,11.97
2023-03-22T08:35:14.272Z,11.99
2023-03-22T08:37:49.852Z,12.01
2023-03-22T08:40:25.762Z,12.03
2023-03-22T08:43:02.976Z,12.06
2023-03-22T08:45:38.982Z,12.08
2023-03-22T08:48:15.464Z,12.14
2023-03-22T08:50:49.327Z,12.25
2023-03-22T08:53:23.582Z,12.35
2023-03-22T08:55:59.769Z,12.44
2023-03-22T08:58:32.638Z,12.47
2023-03-22T09:01:07.375Z,12.53
2023-03-22T09:03:42.040Z,12.54
2023-03-22T09:06:18.281Z,12.55
2023-03-22T09:08:55.796Z,12.54
2023-03-22T09:11:30.411Z,12.54
2023-03-22T09:14:07.330Z,12.56
2023-03-22T09:16:42.386Z,12.60
2023-03-22T09:19:20.288Z,12.62
2023-03-22T09:22:01.052Z,12.66
2023-03-22T09:24:36.504Z,12.70
2023-03-22T09:27:10.799Z,12.74
2023-03-22T09:29:48.314Z,12.80
2023-03-22T09:32:29.378Z,12.87
2023-03-22T09:35:03.153Z,12.95
2023-03-22T09:37:35.971Z,12.97
2023-03-22T09:40:10.574Z,13.02
2023-03-22T09:42:57.066Z,13.05
2023-03-22T09:45:40.267Z,13.05
2023-03-22T09:48:19.458Z,13.06
2023-03-22T09:51:00.064Z,13.04
2023-03-22T09:53:35.817Z,13.03
2023-03-22T09:56:27.368Z,13.02
2023-03-22T09:59:25.705Z,13.03
2023-03-22T10:02:07.115Z,13.07
2023-03-22T10:04:50.357Z,13.09
2023-03-22T10:07:37.922Z,13.10
2023-03-22T10:10:22.243Z,13.15
2023-03-22T10:12:56.024Z,13.26
2023-03-22T10:15:47.908Z,13.34
2023-03-22T10:18:24.724Z,13.43
2023-03-22T10:21:02.583Z,13.53
2023-03-22T10:23:45.348Z,13.60
2023-03-22T10:26:27.059Z,13.67
2023-03-22T10:29:15.929Z,13.70
2023-03-22T10:31:51.091Z,13.75
2023-03-22T10:34:31.728Z,13.79
2023-03-22T10:37:09.352Z,13.83
2023-03-22T10:39:52.798Z,13.88
2023-03-22T10:42:31.981Z,13.93
2023-03-22T10:45:12.355Z,13.93
2023-03-22T10:47:52.481Z,13.91
2023-03-22T10:50:34.366Z,13.90
2023-03-22T10:53:29.905Z,13.91
2023-03-22T10:56:03.134Z,13.91
2023-03-22T10:58:40.386Z,13.95
2023-03-22T11:01:27.926Z,14.02
2023-03-22T11:04:10.987Z,14.16
2023-03-22T11:06:56.089Z,14.24
2023-03-22T11:09:29.641Z,14.29
2023-03-22T11:12:04.300Z,14.35
2023-03-22T11:14:48.810Z,14.40
2023-03-22T11:17:28.045Z,14.43
2023-03-22T11:20:07.151Z,14.44
2023-03-22T11:22:48.372Z,14.47
2023-03-22T11:25:28.945Z,14.50
2023-03-22T11:28:07.556Z,14.53
2023-03-22T11:30:44.311Z,14.54
2023-03-22T11:33:24.732Z,14.57
2023-03-22T11:36:04.048Z,14.63
2023-03-22T11:38:42.076Z,14.70
2023-03-22T11:41:34.312Z,14.73
2023-03-22T11:44:15.104Z,14.73
2023-03-22T11:47:00.676Z,14.73
2023-03-22T11:49:42.282Z,14.71
2023-03-22T11:52:30.429Z,14.71
2023-03-22T11:55:07.432Z,14.70
2023-03-22T11:57:44.252Z,14.74
2023-03-22T12:00:30.081Z,14.77
2023-03-22T12:03:07.202Z,14.81
2023-03-22T12:05:44.537Z,14.83
2023-03-22T12:08:22.762Z,14.87
2023-03-22T12:11:06.548Z,14.89
2023-03-22T12:14:00.922Z,14.94
2023-03-22T12:16:43.492Z,14.98
2023-03-22T12:19:19.775Z,14.98
2023-03-22T12:21:59.405Z,15.01
2023-03-22T12:24:36.806Z,15.04
2023-03-22T12:27:34.984Z,15.06
2023-03-22T12:30:14.433Z,15.11
2023-03-22T12:32:54.176Z,15.15
2023-03-22T12:35:34.569Z,15.20
2023-03-22T12:38:25.357Z,15.27
2023-03-22T12:41:00.893Z,15.30
2023-03-22T12:43:58.924Z,15.34
2023-03-22T12:46:34.492Z,15.35
2023-03-22T12:49:36.498Z,15.35
2023-03-22T12:52:29.932Z,15.36
2023-03-22T12:55:08.450Z,15.38
2023-03-22T12:57:43.102Z,15.40
2023-03-22T13:00:19.649Z,15.43
2023-03-22T13:03:03.153Z,15.46
2023-03-22T13:05:39.831Z,15.45
2023-03-22T13:08:11.411Z,15.45
2023-03-22T13:11:05.708Z,15.45
2023-03-22T13:13:51.102Z,15.41
2023-03-22T13:16:26.187Z,15.39
2023-03-22T13:19:01.262Z,15.40
2023-03-22T13:21:39.869Z,15.40
2023-03-22T13:24:23.626Z,15.39
2023-03-22T13:27:02.585Z,15.41
2023-03-22T13:29:39.331Z,15.42
2023-03-22T13:32:34.104Z,15.43
2023-03-22T13:35:07.281Z,15.46
2023-03-22T13:37:51.436Z,15.46
2023-03-22T13:40:52.704Z,15.45
2023-03-22T13:43:29.877Z,15.42
2023-03-22T13:46:24.316Z,15.40
2023-03-22T13:49:23.126Z,15.39
2023-03-22T13:52:03.121Z,15.40
2023-03-22T13:54:47.721Z,15.43
2023-03-22T13:57:44.116Z,15.47
2023-03-22T14:00:36.294Z,15.51
2023-03-22T14:03:22.742Z,15.51
2023-03-22T14:06:17.122Z,15.50
2023-03-22T14:08:55.500Z,15.51
2023-03-22T14:11:29.817Z,15.52
2023-03-22T14:14:12.419Z,15.54
2023-03-22T14:16:49.534Z,15.56
2023-03-22T14:19:27.742Z,15.56
